createdAt,value
2022-10-17T00:00:58.483Z,4.00
2022-10-17T00:03:26.571Z,4.07
2022-10-17T00:05:54.578Z,2.15
2022-10-17T00:08:22.660Z,2.20
2022-10-17T00:10:57.810Z,1.88
2022-10-17T00:13:26.650Z,2.95
2022-10-17T00:15:55.443Z,3.13
2022-10-17T00:18:25.061Z,2.05
2022-10-17T00:20:53.247Z,2.50
2022-10-17T00:23:21.441Z,3.05
2022-10-17T00:25:58.280Z,3.08
2022-10-17T00:28:26.433Z,4.05
2022-10-17T00:30:57.812Z,852.45
2022-10-17T00:33:27.584Z,1276.82
2022-10-17T00:36:05.176Z,1284.60
2022-10-17T00:38:33.293Z,2.58
2022-10-17T00:41:01.452Z,2.63
2022-10-17T00:43:30.621Z,2.55
2022-10-17T00:45:58.751Z,2.67
2022-10-17T00:48:28.155Z,2.40
2022-10-17T00:50:56.475Z,1084.15
2022-10-17T00:53:24.633Z,1367.85
2022-10-17T00:55:55.060Z,1382.78
2022-10-17T00:58:23.266Z,1377.05
2022-10-17T01:00:51.402Z,1391.13
2022-10-17T01:03:19.509Z,1393.45
2022-10-17T01:05:48.915Z,1391.75
2022-10-17T01:08:17.435Z,1393.43
2022-10-17T01:10:55.910Z,1395.45
2022-10-17T01:13:31.130Z,1390.35
2022-10-17T01:16:08.328Z,1393.80
2022-10-17T01:18:48.357Z,1394.13
2022-10-17T01:21:34.483Z,1394.65
2022-10-17T01:24:47.822Z,1390.75
2022-10-17T01:27:46.867Z,1386.60
2022-10-17T01:30:46.313Z,1392.97
2022-10-17T01:33:23.493Z,1389.97
2022-10-17T01:36:01.736Z,1390.00
2022-10-17T01:38:37.723Z,1389.15
2022-10-17T01:41:11.927Z,1387.97
2022-10-17T01:43:45.508Z,1387.93
2022-10-17T01:46:18.938Z,1386.05
2022-10-17T01:48:50.977Z,1381.90
2022-10-17T01:51:24.137Z,1384.10
2022-10-17T01:53:58.008Z,1377.47
2022-10-17T01:56:29.888Z,1380.10
2022-10-17T01:59:03.176Z,1366.80
2022-10-17T02:01:33.574Z,1382.53
2022-10-17T02:04:05.078Z,1380.05
2022-10-17T02:06:36.378Z,1380.65
2022-10-17T02:09:18.886Z,1371.30
2022-10-17T02:11:56.380Z,1371.55
2022-10-17T02:14:36.785Z,1371.55
2022-10-17T02:17:15.680Z,1373.07
2022-10-17T02:19:56.533Z,1371.25
2022-10-17T02:22:36.035Z,1370.60
2022-10-17T02:25:13.883Z,1367.00
2022-10-17T02:27:49.047Z,1360.13
2022-10-17T02:30:24.549Z,1367.10
2022-10-17T02:32:57.108Z,1368.07
2022-10-17T02:35:29.339Z,1365.45
2022-10-17T02:37:58.907Z,1362.82
2022-10-17T02:40:28.849Z,1353.80
2022-10-17T02:42:59.616Z,1361.90
2022-10-17T02:45:30.270Z,1363.57
2022-10-17T02:48:04.052Z,1354.72
2022-10-17T02:50:43.289Z,1355.13
2022-10-17T02:53:16.115Z,1357.30
2022-10-17T02:55:52.475Z,1355.57
2022-10-17T02:58:24.897Z,1356.28
2022-10-17T03:00:54.220Z,1360.00
2022-10-17T03:03:24.806Z,1355.55
2022-10-17T03:05:54.705Z,1356.13
2022-10-17T03:08:26.761Z,1370.03
2022-10-17T03:10:55.062Z,1367.13
2022-10-17T03:13:23.955Z,1365.82
2022-10-17T03:15:52.314Z,1362.10
2022-10-17T03:18:20.588Z,1362.57
2022-10-17T03:20:52.287Z,1364.00
2022-10-17T03:23:22.623Z,1366.07
2022-10-17T03:25:50.943Z,1355.90
2022-10-17T03:28:18.959Z,1364.60
2022-10-17T03:30:47.050Z,1357.57
2022-10-17T03:33:15.239Z,1351.88
2022-10-17T03:35:43.429Z,1364.63
2022-10-17T03:38:11.615Z,1367.22
2022-10-17T03:40:41.279Z,1362.97
2022-10-17T03:43:11.381Z,1370.85
2022-10-17T03:45:41.819Z,1366.97
2022-10-17T03:48:09.875Z,1371.10
2022-10-17T03:50:38.015Z,1358.47
2022-10-17T03:53:06.186Z,1350.32
2022-10-17T03:55:34.790Z,1357.38
2022-10-17T03:58:04.573Z,1361.97
2022-10-17T04:00:32.836Z,1333.03
2022-10-17T04:03:00.864Z,1339.53
2022-10-17T04:05:29.076Z,1344.63
2022-10-17T04:08:00.998Z,1346.13
2022-10-17T04:10:52.101Z,1350.55
2022-10-17T04:13:21.573Z,1350.00
2022-10-17T04:15:56.189Z,1365.82
2022-10-17T04:18:25.149Z,1351.88
2022-10-17T04:20:53.628Z,1360.35
2022-10-17T04:23:22.949Z,1356.85
2022-10-17T04:25:57.963Z,1351.13
2022-10-17T04:28:29.084Z,1350.22
2022-10-17T04:30:58.514Z,1350.32
2022-10-17T04:33:30.857Z,1356.78
2022-10-17T04:36:01.059Z,1357.93
2022-10-17T04:38:30.474Z,1355.07
2022-10-17T04:41:00.036Z,1357.05
2022-10-17T04:43:29.567Z,1353.90
2022-10-17T04:45:58.790Z,1355.75
2022-10-17T04:48:26.906Z,1357.53
2022-10-17T04:50:55.790Z,1354.03
2022-10-17T04:53:43.571Z,1344.60
2022-10-17T04:56:13.642Z,1352.22
2022-10-17T04:58:44.266Z,1347.32
2022-10-17T05:01:14.475Z,1351.10
2022-10-17T05:03:44.537Z,1350.63
2022-10-17T05:06:15.041Z,1340.00
2022-10-17T05:08:47.779Z,1337.00
2022-10-17T05:11:18.395Z,1343.77
2022-10-17T05:13:51.341Z,1346.80
2022-10-17T05:16:20.135Z,1353.70
2022-10-17T05:18:52.929Z,1355.03
2022-10-17T05:21:22.214Z,1350.47
2022-10-17T05:23:50.839Z,1350.07
2022-10-17T05:26:19.292Z,1359.18
2022-10-17T05:28:48.873Z,1350.47
2022-10-17T05:31:19.026Z,1348.13
2022-10-17T05:33:47.521Z,1339.45
2022-10-17T05:36:17.117Z,1350.70
2022-10-17T05:38:45.233Z,1353.65
2022-10-17T05:41:13.384Z,1356.13
2022-10-17T05:43:41.477Z,1347.53
2022-10-17T05:46:11.575Z,1359.47
2022-10-17T05:48:40.464Z,1345.03
2022-10-17T05:51:10.793Z,1347.87
2022-10-17T05:53:40.559Z,1359.03
2022-10-17T05:56:14.383Z,1367.18
2022-10-17T05:58:50.408Z,1369.63
2022-10-17T06:01:43.393Z,1373.25
2022-10-17T06:04:11.692Z,1365.40
2022-10-17T06:06:40.236Z,1366.25
2022-10-17T06:09:09.801Z,1372.95
2022-10-17T06:11:40.765Z,1363.82
2022-10-17T06:14:09.214Z,1362.53
2022-10-17T06:16:38.994Z,1370.55
2022-10-17T06:19:08.397Z,1381.07
2022-10-17T06:21:38.614Z,1376.35
2022-10-17T06:24:11.780Z,1365.90
2022-10-17T06:26:42.588Z,1367.03
2022-10-17T06:29:13.237Z,1221.97
2022-10-17T06:31:46.754Z,1318.57
2022-10-17T06:34:16.800Z,1342.60
2022-10-17T06:36:46.264Z,1343.18
2022-10-17T06:39:14.450Z,1356.13
2022-10-17T06:42:06.728Z,1367.95
2022-10-17T06:44:48.057Z,1355.70
2022-10-17T06:47:41.411Z,1354.55
2022-10-17T06:50:28.730Z,1347.50
2022-10-17T06:53:25.800Z,1348.93
2022-10-17T06:56:26.413Z,1358.22
2022-10-17T06:59:10.542Z,1357.68
2022-10-17T07:01:43.205Z,1363.07
2022-10-17T07:04:14.979Z,1370.53
2022-10-17T07:06:44.725Z,1363.87
2022-10-17T07:09:24.299Z,1368.07
2022-10-17T07:11:52.411Z,1366.97
2022-10-17T07:14:20.425Z,1368.63
2022-10-17T07:16:50.252Z,1364.38
2022-10-17T07:19:24.328Z,1374.60
2022-10-17T07:21:54.078Z,1364.40
2022-10-17T07:24:22.962Z,1360.70
2022-10-17T07:26:56.608Z,1361.65
2022-10-17T07:29:24.604Z,1370.93
2022-10-17T07:32:15.223Z,1359.28
2022-10-17T07:34:43.429Z,1358.03
2022-10-17T07:37:13.591Z,1357.07
2022-10-17T07:39:47.491Z,1364.72
2022-10-17T07:42:15.590Z,1381.25
2022-10-17T07:44:44.121Z,1365.55
2022-10-17T07:47:12.228Z,1380.00
2022-10-17T07:49:42.464Z,1381.45
2022-10-17T07:52:11.914Z,1376.50
2022-10-17T07:54:42.438Z,1380.78
2022-10-17T07:57:11.018Z,1391.47
2022-10-17T07:59:39.546Z,1391.13
2022-10-17T08:02:08.486Z,1395.25
2022-10-17T08:04:37.023Z,1404.13
2022-10-17T08:07:18.624Z,1403.72
2022-10-17T08:09:51.449Z,1407.47
2022-10-17T08:12:19.455Z,1406.68
2022-10-17T08:14:48.147Z,1408.32
2022-10-17T08:17:16.189Z,1405.97
2022-10-17T08:19:44.278Z,1387.18
2022-10-17T08:22:12.269Z,1383.75
2022-10-17T08:24:40.312Z,1373.75
2022-10-17T08:27:11.502Z,1386.05
2022-10-17T08:29:40.085Z,1379.60
2022-10-17T08:32:10.016Z,1389.55
2022-10-17T08:34:38.485Z,1398.88
2022-10-17T08:37:06.530Z,1391.93
2022-10-17T08:39:34.726Z,1394.25
2022-10-17T08:42:18.177Z,1391.43
2022-10-17T08:44:57.641Z,1393.75
2022-10-17T08:47:30.652Z,1403.93
2022-10-17T08:50:03.059Z,1405.70
2022-10-17T08:52:37.711Z,1405.43
2022-10-17T08:55:14.321Z,1407.97
2022-10-17T08:57:44.186Z,1393.57
2022-10-17T09:00:18.429Z,1375.63
2022-10-17T09:03:03.554Z,1394.85
2022-10-17T09:05:40.841Z,1395.57
2022-10-17T09:08:17.669Z,1395.97
2022-10-17T09:10:55.227Z,1373.30
2022-10-17T09:13:46.199Z,1372.78
2022-10-17T09:16:34.329Z,1375.43
2022-10-17T09:19:05.702Z,1400.93
2022-10-17T09:21:43.004Z,1391.55
2022-10-17T09:24:17.382Z,1387.45
2022-10-17T09:26:46.768Z,1409.40
2022-10-17T09:29:22.739Z,1390.77
2022-10-17T09:34:33.200Z,1400.78
2022-10-17T09:37:07.481Z,1394.85
2022-10-17T09:39:35.856Z,1401.15
2022-10-17T09:42:04.538Z,1394.38
2022-10-17T09:44:36.217Z,1395.00
2022-10-17T09:47:16.303Z,1403.10
2022-10-17T09:49:47.031Z,1402.97
2022-10-17T09:52:18.525Z,1404.32
2022-10-17T09:54:49.529Z,1377.85
2022-10-17T09:57:19.617Z,1382.53
2022-10-17T09:59:56.851Z,1394.60
2022-10-17T10:02:27.466Z,1384.22
2022-10-17T10:05:04.309Z,1384.85
2022-10-17T10:07:35.572Z,1384.40
2022-10-17T10:10:05.630Z,1388.65
2022-10-17T10:12:36.001Z,1384.50
2022-10-17T10:15:32.056Z,1386.10
2022-10-17T10:18:00.256Z,1384.50
2022-10-17T10:20:34.269Z,1393.00
2022-10-17T10:23:14.578Z,1391.47
2022-10-17T10:25:56.084Z,1398.40
2022-10-17T10:28:28.196Z,1400.07
2022-10-17T10:31:00.088Z,1403.68
2022-10-17T10:33:31.448Z,1407.03
2022-10-17T10:36:03.260Z,1395.82
2022-10-17T10:39:01.225Z,1397.90
2022-10-17T10:41:48.362Z,1403.45
2022-10-17T10:44:21.137Z,1391.20
2022-10-17T10:47:08.059Z,1403.63
2022-10-17T10:49:36.154Z,1427.10
2022-10-17T10:52:05.443Z,1414.83
2022-10-17T10:57:20.075Z,1393.82
2022-10-17T10:59:58.294Z,1393.30
2022-10-17T11:02:32.187Z,1412.43
2022-10-17T11:05:04.427Z,1394.38
2022-10-17T11:07:37.676Z,1424.57
2022-10-17T11:10:14.557Z,1428.07
2022-10-17T11:12:47.368Z,1430.07
2022-10-17T11:15:22.720Z,1428.05
2022-10-17T11:17:59.127Z,1422.70
2022-10-17T11:20:35.182Z,1420.20
2022-10-17T11:23:19.834Z,1423.32
2022-10-17T11:25:51.053Z,1426.00
2022-10-17T11:28:22.634Z,1429.38
2022-10-17T11:30:57.234Z,1429.97
2022-10-17T11:33:32.254Z,1426.70
2022-10-17T11:36:05.412Z,1434.75
2022-10-17T11:38:49.501Z,1448.25
2022-10-17T11:41:21.951Z,1445.82
2022-10-17T11:43:54.434Z,1449.18
2022-10-17T11:46:25.020Z,1452.60
2022-10-17T11:49:05.773Z,1449.55
2022-10-17T11:52:03.166Z,1458.75
2022-10-17T11:54:38.625Z,1426.13
2022-10-17T11:57:28.960Z,1456.50
2022-10-17T12:00:13.078Z,1450.47
2022-10-17T12:02:52.329Z,1450.15
2022-10-17T12:05:27.831Z,1451.72
2022-10-17T12:08:04.063Z,1452.05
2022-10-17T12:10:41.489Z,1450.35
2022-10-17T12:13:48.389Z,1453.28
2022-10-17T12:19:30.682Z,1448.72
2022-10-17T12:22:16.738Z,1452.75
2022-10-17T12:24:46.453Z,1448.47
2022-10-17T12:27:46.317Z,1457.75
2022-10-17T12:30:21.514Z,1462.47
2022-10-17T12:33:06.553Z,1466.18
2022-10-17T12:35:37.600Z,1449.82
2022-10-17T12:38:21.621Z,1463.13
2022-10-17T12:40:54.668Z,1463.00
2022-10-17T12:43:58.027Z,1465.30
2022-10-17T12:46:49.364Z,1447.28
2022-10-17T12:49:40.346Z,1459.95
2022-10-17T12:52:27.422Z,1468.38
2022-10-17T12:55:14.379Z,1468.38
2022-10-17T12:57:50.882Z,1459.37
2022-10-17T13:00:23.578Z,1458.05
2022-10-17T13:02:55.429Z,1450.93
2022-10-17T13:05:29.442Z,1453.32
2022-10-17T13:08:00.301Z,1452.77
2022-10-17T13:10:34.613Z,1462.10
2022-10-17T13:13:10.055Z,1460.65
2022-10-17T13:15:38.623Z,1449.63
2022-10-17T13:18:06.869Z,1455.65
2022-10-17T13:20:35.132Z,1451.63
2022-10-17T13:23:03.750Z,1459.53
2022-10-17T13:25:35.526Z,1455.13
2022-10-17T13:28:13.544Z,1464.68
2022-10-17T13:30:49.667Z,1472.03
2022-10-17T13:33:29.937Z,1466.45
2022-10-17T13:36:01.410Z,1469.95
2022-10-17T13:38:34.171Z,1483.20
2022-10-17T13:41:34.260Z,1471.35
2022-10-17T13:44:00.543Z,1473.72
2022-10-17T13:46:37.859Z,1468.75
2022-10-17T13:49:25.747Z,1478.45
2022-10-17T13:51:57.221Z,1487.70
2022-10-17T13:54:35.721Z,1482.28
2022-10-17T13:57:07.253Z,1473.25
2022-10-17T13:59:39.628Z,1480.03
2022-10-17T14:02:12.989Z,1475.45
2022-10-17T14:05:11.693Z,1486.47
2022-10-17T14:07:58.124Z,1500.78
2022-10-17T14:10:26.294Z,1496.25
2022-10-17T14:12:56.551Z,1482.70
2022-10-17T14:15:28.335Z,1485.50
2022-10-17T14:18:05.434Z,1482.97
2022-10-17T14:21:08.239Z,1487.78
2022-10-17T14:23:32.693Z,1492.07
2022-10-17T14:26:16.555Z,1483.00
2022-10-17T14:28:49.342Z,1485.70
2022-10-17T14:31:29.689Z,1481.28
2022-10-17T14:33:58.654Z,1496.45
2022-10-17T14:36:38.892Z,1503.07
2022-10-17T14:39:13.494Z,1489.68
2022-10-17T14:41:45.413Z,1491.78
2022-10-17T14:44:22.752Z,1494.22
2022-10-17T14:46:55.121Z,1489.65
2022-10-17T14:49:32.552Z,1501.90
2022-10-17T14:52:27.363Z,1502.38
2022-10-17T14:54:55.831Z,1499.37
2022-10-17T14:57:26.964Z,1503.47
2022-10-17T14:59:57.364Z,1482.80
2022-10-17T15:02:26.315Z,1490.72
2022-10-17T15:04:54.460Z,1487.35
2022-10-17T15:07:23.627Z,1499.35
2022-10-17T15:09:53.672Z,1481.18
2022-10-17T15:12:24.681Z,1480.25
2022-10-17T15:14:53.235Z,1473.97
2022-10-17T15:17:25.268Z,1472.97
2022-10-17T15:19:53.559Z,1478.57
2022-10-17T15:22:21.888Z,1474.60
2022-10-17T15:24:50.189Z,1485.60
2022-10-17T15:27:19.468Z,1485.68
2022-10-17T15:29:47.585Z,1483.15
2022-10-17T15:32:16.189Z,1493.53
2022-10-17T15:34:45.559Z,1499.80
2022-10-17T15:37:20.880Z,1479.47
2022-10-17T15:39:53.371Z,1476.23
2022-10-17T15:42:22.966Z,1483.28
2022-10-17T15:44:51.257Z,1477.90
2022-10-17T15:47:26.371Z,1470.25
2022-10-17T15:49:56.415Z,1480.07
2022-10-17T15:52:24.787Z,1473.23
2022-10-17T15:54:53.473Z,1473.63
2022-10-17T15:57:23.920Z,1467.87
2022-10-17T15:59:53.257Z,1471.57
2022-10-17T16:02:22.802Z,1461.60
2022-10-17T16:04:52.205Z,1479.23
2022-10-17T16:07:22.040Z,1459.07
2022-10-17T16:09:50.184Z,1462.88
2022-10-17T16:12:20.143Z,1437.43
2022-10-17T16:14:48.652Z,1445.45
2022-10-17T16:17:17.077Z,1452.72
2022-10-17T16:19:47.119Z,1450.05
2022-10-17T16:22:24.831Z,1452.35
2022-10-17T16:24:58.291Z,1453.38
2022-10-17T16:27:27.112Z,1451.43
2022-10-17T16:29:55.087Z,1449.97
2022-10-17T16:32:23.156Z,1460.38
2022-10-17T16:34:51.126Z,1464.45
2022-10-17T16:37:19.176Z,1457.95
2022-10-17T16:39:52.431Z,1455.97
2022-10-17T16:42:20.833Z,1462.00
2022-10-17T16:44:49.270Z,1461.65
2022-10-17T16:47:18.040Z,1462.93
2022-10-17T16:49:46.138Z,1453.10
2022-10-17T16:52:14.496Z,1458.20
2022-10-17T16:54:42.451Z,1464.22
2022-10-17T16:57:11.892Z,1453.82
2022-10-17T16:59:40.114Z,1461.78
2022-10-17T17:02:08.342Z,1459.85
2022-10-17T17:04:36.552Z,1466.93
2022-10-17T17:07:04.689Z,1461.68
2022-10-17T17:09:33.174Z,1433.05
2022-10-17T17:12:01.322Z,1434.07
2022-10-17T17:14:31.160Z,1440.63
2022-10-17T17:16:59.253Z,1439.03
2022-10-17T17:19:28.643Z,1437.25
2022-10-17T17:21:56.644Z,1428.95
2022-10-17T17:24:25.563Z,1429.97
2022-10-17T17:26:55.130Z,1436.35
2022-10-17T17:29:24.273Z,1437.40
2022-10-17T17:31:53.730Z,1432.18
2022-10-17T17:34:21.725Z,1427.27
2022-10-17T17:36:49.779Z,1435.68
2022-10-17T17:39:18.338Z,1433.00
2022-10-17T17:41:46.619Z,1434.10
2022-10-17T17:44:16.954Z,1430.88
2022-10-17T17:46:46.232Z,1433.38
2022-10-17T17:49:15.694Z,1436.32
2022-10-17T17:51:46.471Z,1433.43
2022-10-17T17:54:15.029Z,1441.38
2022-10-17T17:56:43.363Z,1461.90
2022-10-17T17:59:14.333Z,1460.93
2022-10-17T18:01:42.974Z,1467.47
2022-10-17T18:04:12.121Z,1463.43
2022-10-17T18:06:41.725Z,1462.87
2022-10-17T18:09:10.267Z,1465.45
2022-10-17T18:11:39.444Z,1465.72
2022-10-17T18:14:11.624Z,1468.80
2022-10-17T18:16:39.870Z,1466.90
2022-10-17T18:19:09.993Z,1463.28
2022-10-17T18:21:38.495Z,1454.55
2022-10-17T18:24:11.390Z,1468.32
2022-10-17T18:26:39.657Z,1454.63
2022-10-17T18:29:07.725Z,1434.88
2022-10-17T18:31:36.412Z,1435.95
2022-10-17T18:34:07.206Z,1438.55
2022-10-17T18:36:37.174Z,1421.03
2022-10-17T18:39:07.031Z,1446.72
2022-10-17T18:41:36.100Z,1439.90
2022-10-17T18:44:04.705Z,1434.10
2022-10-17T18:46:36.104Z,1422.38
2022-10-17T18:49:04.735Z,1428.55
2022-10-17T18:51:33.036Z,1438.43
2022-10-17T18:54:02.304Z,1423.28
2022-10-17T18:56:32.402Z,1431.93
2022-10-17T18:59:00.428Z,1436.10
2022-10-17T19:01:29.223Z,1434.78
2022-10-17T19:03:58.859Z,1436.63
2022-10-17T19:06:28.828Z,1437.47
2022-10-17T19:08:56.877Z,1430.95
2022-10-17T19:11:27.381Z,1430.22
2022-10-17T19:13:59.015Z,1421.47
2022-10-17T19:16:30.128Z,1431.47
2022-10-17T19:19:00.049Z,1436.53
2022-10-17T19:21:28.513Z,1430.47
2022-10-17T19:23:58.832Z,1431.93
2022-10-17T19:26:28.203Z,1435.10
2022-10-17T19:29:00.179Z,1433.50
2022-10-17T19:31:31.492Z,1431.75
2022-10-17T19:34:00.866Z,1427.93
2022-10-17T19:36:33.604Z,1426.65
2022-10-17T19:39:03.034Z,1428.28
2022-10-17T19:41:31.531Z,1432.28
2022-10-17T19:44:02.192Z,1426.32
2022-10-17T19:46:31.731Z,1431.53
2022-10-17T19:48:59.902Z,1424.03
2022-10-17T19:51:29.083Z,1428.53
2022-10-17T19:54:00.236Z,1417.30
2022-10-17T19:56:30.415Z,1423.60
2022-10-17T19:59:00.514Z,1422.63
2022-10-17T20:01:34.061Z,1427.40
2022-10-17T20:04:02.519Z,1423.78
2022-10-17T20:06:30.592Z,1419.40
2022-10-17T20:08:59.584Z,1423.38
2022-10-17T20:11:30.354Z,1427.95
2022-10-17T20:14:00.566Z,1429.63
2022-10-17T20:16:30.370Z,1428.25
2022-10-17T20:19:03.740Z,1422.97
2022-10-17T20:21:34.964Z,1423.35
2022-10-17T20:24:05.402Z,1416.15
2022-10-17T20:26:39.880Z,1420.53
2022-10-17T20:29:12.131Z,1429.80
2022-10-17T20:31:42.783Z,1417.45
2022-10-17T20:34:14.103Z,1424.78
2022-10-17T20:36:42.451Z,1430.93
2022-10-17T20:39:12.908Z,1429.50
2022-10-17T20:41:41.673Z,1433.35
2022-10-17T20:44:11.415Z,1430.20
2022-10-17T20:46:48.443Z,1426.22
2022-10-17T20:49:25.789Z,1437.37
2022-10-17T20:51:53.798Z,1430.90
2022-10-17T20:54:22.347Z,1430.33
2022-10-17T20:56:50.573Z,1403.25
2022-10-17T20:59:19.999Z,1406.28
2022-10-17T21:01:48.897Z,1420.82
2022-10-17T21:04:44.129Z,1424.75
2022-10-17T21:07:05.230Z,1418.55
2022-10-17T21:09:33.483Z,1419.28
2022-10-17T21:12:02.471Z,1417.60
2022-10-17T21:14:33.328Z,1415.32
2022-10-17T21:17:05.266Z,1408.65
2022-10-17T21:19:33.834Z,1412.07
2022-10-17T21:22:02.157Z,1386.32
2022-10-17T21:24:30.351Z,1414.38
2022-10-17T21:26:58.855Z,1403.25
2022-10-17T21:29:27.128Z,1411.72
2022-10-17T21:31:56.827Z,1422.72
2022-10-17T21:34:25.785Z,1414.00
2022-10-17T21:36:54.178Z,1414.65
2022-10-17T21:39:24.086Z,1419.15
2022-10-17T21:41:52.971Z,1432.32
2022-10-17T21:44:22.632Z,1420.05
2022-10-17T21:46:51.317Z,1409.80
2022-10-17T21:49:22.639Z,1389.80
2022-10-17T21:51:51.601Z,1410.68
2022-10-17T21:54:21.080Z,1418.88
2022-10-17T21:56:49.150Z,1407.97
2022-10-17T21:59:17.767Z,1404.45
2022-10-17T22:01:47.142Z,1400.70
2022-10-17T22:04:16.749Z,1400.32
2022-10-17T22:06:48.254Z,1408.33
2022-10-17T22:09:18.460Z,1405.65
2022-10-17T22:11:47.790Z,1422.75
2022-10-17T22:14:17.900Z,1421.72
2022-10-17T22:16:46.819Z,1423.90
2022-10-17T22:19:17.995Z,1425.82
2022-10-17T22:21:47.841Z,1427.00
2022-10-17T22:24:17.680Z,1425.68
2022-10-17T22:26:46.114Z,1424.85
2022-10-17T22:29:14.943Z,1428.35
2022-10-17T22:31:43.530Z,1415.35
2022-10-17T22:34:13.935Z,1393.32
2022-10-17T22:36:42.267Z,1404.40
2022-10-17T22:39:12.280Z,1395.85
2022-10-17T22:41:40.366Z,1401.30
2022-10-17T22:44:08.546Z,1417.30
2022-10-17T22:46:36.892Z,1413.78
2022-10-17T22:49:05.574Z,1411.18
2022-10-17T22:51:33.597Z,1405.43
2022-10-17T22:54:01.814Z,1404.97
2022-10-17T22:56:31.217Z,1399.00
2022-10-17T22:58:59.265Z,1410.32
2022-10-17T23:01:27.544Z,1407.80
2022-10-17T23:03:55.665Z,1403.00
2022-10-17T23:06:25.143Z,1406.85
2022-10-17T23:08:53.228Z,1410.88
2022-10-17T23:11:21.854Z,1412.70
2022-10-17T23:13:51.369Z,1406.47
2022-10-17T23:16:19.554Z,1416.22
2022-10-17T23:18:47.557Z,1400.35
2022-10-17T23:21:16.593Z,1402.25
2022-10-17T23:23:44.713Z,1404.40
2022-10-17T23:26:15.118Z,1415.50
2022-10-17T23:28:44.046Z,1412.00
2022-10-17T23:31:16.580Z,1413.63
2022-10-17T23:33:46.129Z,1404.65
2022-10-17T23:36:15.013Z,1412.63
2022-10-17T23:38:44.624Z,1409.97
2022-10-17T23:41:13.208Z,1412.15
2022-10-17T23:43:41.457Z,1415.28
2022-10-17T23:46:09.708Z,1407.05
2022-10-17T23:48:39.405Z,1413.25
2022-10-17T23:51:07.901Z,1405.97
2022-10-17T23:53:35.994Z,1410.32
2022-10-17T23:56:04.552Z,1420.40
2022-10-17T23:58:32.781Z,1426.20
